This is the latest recevied weather packets stored in our database for station/object K4WCH. If no packets are shown the sender has not sent any weather packets the latest 10 day(s).
| Time | Temp. | Humidity | Pressure | Rain* | Wind** | Luminosity | Snow |
|---|---|---|---|---|---|---|---|
| 1787865096 | 23.33° C | 94% | 1017.5 hPa | 1.27 mm | - | 9 W/m² | - |
| 1787864792 | 23.33° C | 93% | 1017.3 hPa | 3.05 mm | - | 11 W/m² | - |
| 1787864491 | 23.89° C | 92% | 1017.1 hPa | 4.32 mm | - | 13 W/m² | - |
| 1787864191 | 23.89° C | 90% | 1016.7 hPa | 1.78 mm | - | 16 W/m² | - |
| 1787863886 | 23.89° C | 90% | 1016.8 hPa | 0 mm | - | 19 W/m² | - |
| 1787863586 | 23.89° C | 88% | 1016.8 hPa | 3.56 mm | - | 23 W/m² | - |
| 1787863279 | 24.44° C | 88% | 1016.7 hPa | 6.6 mm | - | 26 W/m² | - |
| 1787862976 | 23.89° C | 90% | 1017.3 hPa | 3.05 mm | - | 25 W/m² | - |
| 1787862670 | 23.89° C | 91% | 1017.3 hPa | 1.27 mm | - | 22 W/m² | - |
| 1787862365 | 24.44° C | 90% | 1017.1 hPa | 1.27 mm | - | 16 W/m² | - |
| 1787862061 | 25° C | 89% | 1016.8 hPa | 1.27 mm | - | 18 W/m² | - |
| 1787861760 | 27.22° C | 79% | 1016.3 hPa | 0 mm | - | 13 W/m² | - |
| 1787861458 | 30.56° C | 62% | 1015.9 hPa | 0 mm | - | 18 W/m² | - |
| 1787861153 | 32.22° C | 59% | 1015.1 hPa | 0 mm | - | 167 W/m² | - |
| 1787860852 | 33.89° C | 56% | 1014.9 hPa | 0 mm | - | 289 W/m² | - |
| 1787860547 | 34.44° C | 53% | 1014.9 hPa | 0 mm | - | 794 W/m² | - |
| 1787860242 | 33.89° C | 54% | 1014.9 hPa | 0 mm | - | 866 W/m² | - |
| 1787859937 | 33.33° C | 54% | 1015.1 hPa | 0 mm | - | 922 W/m² | - |
| 1787859633 | 34.44° C | 52% | 1015.2 hPa | 0 mm | - | 212 W/m² | - |
| 1787859332 | 34.44° C | 53% | 1015.2 hPa | 0 mm | - | 967 W/m² | - |
| 1787859029 | 34.44° C | 51% | 1015.4 hPa | 0 mm | - | 892 W/m² | - |
| 1787858725 | 34.44° C | 51% | 1015.2 hPa | 0 mm | - | 891 W/m² | - |
| 1787858420 | 33.89° C | 53% | 1015.2 hPa | 0 mm | - | 937 W/m² | - |
| 1787858120 | 33.89° C | 53% | 1015.4 hPa | 0 mm | - | 937 W/m² | - |
| 1787857815 | 34.44° C | 53% | 1015.5 hPa | 0 mm | - | 913 W/m² | - |
* Rain latest hour (hover to see other rain measurements)
** Current wind speed in m/s (hover to see current wind gust speed)